createdAt,value
2022-08-17T00:01:00.798Z,23.94
2022-08-17T00:02:26.167Z,23.92
2022-08-17T00:03:43.652Z,23.90
2022-08-17T00:04:50.572Z,23.90
2022-08-17T00:06:12.453Z,23.83
2022-08-17T00:07:16.908Z,23.89
2022-08-17T00:08:26.690Z,23.86
2022-08-17T00:09:30.612Z,23.87
2022-08-17T00:10:35.237Z,23.83
2022-08-17T00:12:41.444Z,23.80
2022-08-17T00:13:20.501Z,23.77
2022-08-17T00:14:24.402Z,23.56
2022-08-17T00:15:28.422Z,23.74
2022-08-17T00:16:56.375Z,23.73
2022-08-17T00:18:01.294Z,23.72
2022-08-17T00:19:10.526Z,23.71
2022-08-17T00:20:14.894Z,23.70
2022-08-17T00:21:23.879Z,23.66
2022-08-17T00:22:33.993Z,23.65
2022-08-17T00:23:49.060Z,23.64
2022-08-17T00:24:54.508Z,23.62
2022-08-17T00:25:58.987Z,23.61
2022-08-17T00:27:03.620Z,23.52
2022-08-17T00:28:08.209Z,23.62
2022-08-17T00:29:14.931Z,23.55
2022-08-17T00:30:24.192Z,23.36
2022-08-17T00:31:29.008Z,23.55
2022-08-17T00:33:14.351Z,23.60
2022-08-17T00:34:12.452Z,23.63
2022-08-17T00:35:19.617Z,23.63
2022-08-17T00:36:24.377Z,23.61
2022-08-17T00:37:28.449Z,23.49
2022-08-17T00:38:33.965Z,23.60
2022-08-17T00:39:37.938Z,23.60
2022-08-17T00:40:48.164Z,23.57
2022-08-17T00:41:52.381Z,23.57
2022-08-17T00:42:57.666Z,23.53
2022-08-17T00:44:07.162Z,23.52
2022-08-17T00:45:18.659Z,23.48
2022-08-17T00:46:30.843Z,23.38
2022-08-17T00:47:35.644Z,23.46
2022-08-17T00:48:40.735Z,23.44
2022-08-17T00:49:45.126Z,23.42
2022-08-17T00:51:34.194Z,23.41
2022-08-17T00:52:51.724Z,23.24
2022-08-17T00:54:07.809Z,23.33
2022-08-17T00:55:12.378Z,23.33
2022-08-17T00:56:29.100Z,23.32
2022-08-17T00:57:53.368Z,23.24
2022-08-17T00:59:02.699Z,23.28
2022-08-17T01:00:26.899Z,23.23
2022-08-17T01:01:33.175Z,23.29
2022-08-17T01:02:45.114Z,23.29
2022-08-17T01:03:51.982Z,23.30
2022-08-17T01:04:57.827Z,23.28
2022-08-17T01:06:04.682Z,23.30
2022-08-17T01:07:11.445Z,23.30
2022-08-17T01:08:19.993Z,23.29
2022-08-17T01:09:24.424Z,23.31
2022-08-17T01:10:58.765Z,23.30
2022-08-17T01:12:08.124Z,23.33
2022-08-17T01:13:15.159Z,23.31
2022-08-17T01:14:21.767Z,23.31
2022-08-17T01:15:26.493Z,23.29
2022-08-17T01:16:32.845Z,23.21
2022-08-17T01:17:37.944Z,23.30
2022-08-17T01:18:44.322Z,23.31
2022-08-17T01:19:48.334Z,23.29
2022-08-17T01:20:57.554Z,23.29
2022-08-17T01:22:13.008Z,23.20
2022-08-17T01:23:21.472Z,23.31
2022-08-17T01:24:25.817Z,23.30
2022-08-17T01:25:31.322Z,23.30
2022-08-17T01:26:38.834Z,23.28
2022-08-17T01:27:43.936Z,23.21
2022-08-17T01:28:53.804Z,23.26
2022-08-17T01:30:56.642Z,23.24
2022-08-17T01:31:40.312Z,23.25
2022-08-17T01:32:44.129Z,23.25
2022-08-17T01:33:47.902Z,23.22
2022-08-17T01:34:54.296Z,23.21
2022-08-17T01:36:00.683Z,23.24
2022-08-17T01:37:05.113Z,23.21
2022-08-17T01:38:09.697Z,23.20
2022-08-17T01:39:28.017Z,23.13
2022-08-17T01:40:57.683Z,23.17
2022-08-17T01:42:19.375Z,23.17
2022-08-17T01:43:39.942Z,23.17
2022-08-17T01:44:43.977Z,23.18
2022-08-17T01:46:03.864Z,23.13
2022-08-17T01:47:08.341Z,23.11
2022-08-17T01:48:13.395Z,23.07
2022-08-17T01:49:17.258Z,22.98
2022-08-17T01:50:28.184Z,23.01
2022-08-17T01:51:33.296Z,22.99
2022-08-17T01:52:37.557Z,22.95
2022-08-17T01:53:47.944Z,22.92
2022-08-17T01:54:53.556Z,22.80
2022-08-17T01:56:08.313Z,22.86
2022-08-17T01:57:12.546Z,22.84
2022-08-17T01:58:16.859Z,22.84
2022-08-17T01:59:21.441Z,22.84
2022-08-17T02:00:27.856Z,22.84
2022-08-17T02:01:53.087Z,22.87
2022-08-17T02:02:57.196Z,22.87
2022-08-17T02:04:02.880Z,22.85
2022-08-17T02:05:09.599Z,22.83
2022-08-17T02:06:28.242Z,22.86
2022-08-17T02:07:32.170Z,22.83
2022-08-17T02:09:01.629Z,22.83
2022-08-17T02:10:16.709Z,22.83
2022-08-17T02:11:24.991Z,22.87
2022-08-17T02:12:37.793Z,22.86
2022-08-17T02:13:45.887Z,22.85
2022-08-17T02:14:50.524Z,22.85
2022-08-17T02:15:54.599Z,22.81
2022-08-17T02:16:58.664Z,22.81
2022-08-17T02:18:05.706Z,22.82
2022-08-17T02:19:17.079Z,22.81
2022-08-17T02:20:41.684Z,22.76
2022-08-17T02:21:49.526Z,22.81
2022-08-17T02:22:53.490Z,22.78
2022-08-17T02:23:57.627Z,22.73
2022-08-17T02:25:02.844Z,22.74
2022-08-17T02:26:08.523Z,22.75
2022-08-17T02:27:27.862Z,22.77
2022-08-17T02:28:31.778Z,22.74
2022-08-17T02:29:35.877Z,22.73
2022-08-17T02:30:59.096Z,22.73
2022-08-17T02:32:06.177Z,22.72
2022-08-17T02:33:10.078Z,22.72
2022-08-17T02:34:15.134Z,22.71
2022-08-17T02:35:19.417Z,22.72
2022-08-17T02:36:27.501Z,22.70
2022-08-17T02:37:32.937Z,22.70
2022-08-17T02:38:40.205Z,22.68
2022-08-17T02:39:46.227Z,22.68
2022-08-17T02:40:50.442Z,22.70
2022-08-17T02:42:03.407Z,22.68
2022-08-17T02:43:10.349Z,22.70
2022-08-17T02:44:14.218Z,22.69
2022-08-17T02:45:38.113Z,22.71
2022-08-17T02:46:41.921Z,22.67
2022-08-17T02:47:47.054Z,22.66
2022-08-17T02:48:50.911Z,22.65
2022-08-17T02:49:56.008Z,22.65
2022-08-17T02:51:01.661Z,22.66
2022-08-17T02:52:08.380Z,22.66
2022-08-17T02:53:12.160Z,22.64
2022-08-17T02:54:40.592Z,22.65
2022-08-17T02:55:42.992Z,22.66
2022-08-17T02:56:46.689Z,22.66
2022-08-17T02:57:52.185Z,22.64
2022-08-17T02:58:56.230Z,22.64
2022-08-17T03:00:00.034Z,22.64
2022-08-17T03:01:10.692Z,22.61
2022-08-17T03:02:15.695Z,22.62
2022-08-17T03:03:19.631Z,22.58
2022-08-17T03:04:23.610Z,22.60
2022-08-17T03:05:30.591Z,22.58
2022-08-17T03:06:34.478Z,22.54
2022-08-17T03:07:39.312Z,22.53
2022-08-17T03:08:43.363Z,22.50
2022-08-17T03:09:47.636Z,22.50
2022-08-17T03:10:51.556Z,22.43
2022-08-17T03:11:56.038Z,22.49
2022-08-17T03:13:00.660Z,22.49
2022-08-17T03:14:04.742Z,22.49
2022-08-17T03:15:23.065Z,22.47
2022-08-17T03:16:26.956Z,22.49
2022-08-17T03:17:30.983Z,22.47
2022-08-17T03:18:35.378Z,22.47
2022-08-17T03:19:39.630Z,22.46
2022-08-17T03:20:47.208Z,22.49
2022-08-17T03:21:54.890Z,22.49
2022-08-17T03:23:01.773Z,22.46
2022-08-17T03:24:09.022Z,22.39
2022-08-17T03:25:24.506Z,22.48
2022-08-17T03:26:29.778Z,22.47
2022-08-17T03:27:33.923Z,22.47
2022-08-17T03:28:40.972Z,22.39
2022-08-17T03:29:45.177Z,22.47
2022-08-17T03:30:49.774Z,22.46
2022-08-17T03:31:53.697Z,22.42
2022-08-17T03:33:01.924Z,22.45
2022-08-17T03:34:06.060Z,22.41
2022-08-17T03:35:12.491Z,22.43
2022-08-17T03:36:16.806Z,22.36
2022-08-17T03:37:20.628Z,22.34
2022-08-17T03:38:25.638Z,22.40
2022-08-17T03:39:29.499Z,22.32
2022-08-17T03:40:55.212Z,22.41
2022-08-17T03:42:32.293Z,22.42
2022-08-17T03:43:36.779Z,22.45
2022-08-17T03:44:41.337Z,22.39
2022-08-17T03:46:04.050Z,22.33
2022-08-17T03:47:28.580Z,22.29
2022-08-17T03:48:51.065Z,22.39
2022-08-17T03:50:13.470Z,22.38
2022-08-17T03:51:43.315Z,22.39
2022-08-17T03:53:09.487Z,22.38
2022-08-17T03:54:31.937Z,22.40
2022-08-17T03:55:56.556Z,22.38
2022-08-17T03:57:05.568Z,22.34
2022-08-17T03:58:09.659Z,22.38
2022-08-17T03:59:23.024Z,22.34
2022-08-17T04:00:27.867Z,22.33
2022-08-17T04:01:32.250Z,22.34
2022-08-17T04:02:36.704Z,22.29
2022-08-17T04:03:40.590Z,22.37
2022-08-17T04:04:44.853Z,22.36
2022-08-17T04:05:48.660Z,22.37
2022-08-17T04:06:52.731Z,22.36
2022-08-17T04:07:57.248Z,22.37
2022-08-17T04:09:01.365Z,22.41
2022-08-17T04:10:06.278Z,22.42
2022-08-17T04:11:10.649Z,22.42
2022-08-17T04:12:18.958Z,22.43
2022-08-17T04:13:24.066Z,22.45
2022-08-17T04:14:31.311Z,22.45
2022-08-17T04:15:35.155Z,22.48
2022-08-17T04:16:39.193Z,22.51
2022-08-17T04:17:44.434Z,22.51
2022-08-17T04:18:48.183Z,22.52
2022-08-17T04:19:53.408Z,22.55
2022-08-17T04:20:57.837Z,22.48
2022-08-17T04:22:05.715Z,22.54
2022-08-17T04:23:15.857Z,22.57
2022-08-17T04:24:21.182Z,22.60
2022-08-17T04:25:27.603Z,22.60
2022-08-17T04:26:52.135Z,22.63
2022-08-17T04:27:57.604Z,22.64
2022-08-17T04:29:01.483Z,22.65
2022-08-17T04:30:10.071Z,22.65
2022-08-17T04:31:15.950Z,22.66
2022-08-17T04:32:58.407Z,22.67
2022-08-17T04:33:44.595Z,22.68
2022-08-17T04:34:49.055Z,22.67
2022-08-17T04:35:58.507Z,22.67
2022-08-17T04:37:02.293Z,22.66
2022-08-17T04:38:12.163Z,22.67
2022-08-17T04:39:16.133Z,22.62
2022-08-17T04:40:41.830Z,22.68
2022-08-17T04:42:04.413Z,22.68
2022-08-17T04:43:18.787Z,22.61
2022-08-17T04:44:28.339Z,22.71
2022-08-17T04:45:55.496Z,22.72
2022-08-17T04:47:00.767Z,22.74
2022-08-17T04:48:04.604Z,22.75
2022-08-17T04:49:11.748Z,22.73
2022-08-17T04:50:15.974Z,22.74
2022-08-17T04:51:31.306Z,22.74
2022-08-17T04:52:46.491Z,22.78
2022-08-17T04:53:55.483Z,22.76
2022-08-17T04:55:02.966Z,22.78
2022-08-17T04:56:07.584Z,22.79
2022-08-17T04:57:16.249Z,22.83
2022-08-17T04:58:21.655Z,22.85
2022-08-17T04:59:25.612Z,22.90
2022-08-17T05:00:30.027Z,22.83
2022-08-17T05:01:38.372Z,22.95
2022-08-17T05:02:49.616Z,22.96
2022-08-17T05:03:59.357Z,22.98
2022-08-17T05:05:03.446Z,23.01
2022-08-17T05:06:12.692Z,23.01
2022-08-17T05:07:21.117Z,23.07
2022-08-17T05:08:27.942Z,23.04
2022-08-17T05:09:31.841Z,23.07
2022-08-17T05:10:39.219Z,23.01
2022-08-17T05:12:01.514Z,23.07
2022-08-17T05:13:11.439Z,23.07
2022-08-17T05:14:16.365Z,23.10
2022-08-17T05:15:21.621Z,23.13
2022-08-17T05:16:29.621Z,23.15
2022-08-17T05:17:33.424Z,23.17
2022-08-17T05:18:39.034Z,23.21
2022-08-17T05:19:43.028Z,23.26
2022-08-17T05:20:47.439Z,23.30
2022-08-17T05:21:52.908Z,23.36
2022-08-17T05:23:01.754Z,23.43
2022-08-17T05:24:06.072Z,23.52
2022-08-17T05:25:42.354Z,23.63
2022-08-17T05:26:51.595Z,23.72
2022-08-17T05:27:57.681Z,23.82
2022-08-17T05:29:03.116Z,23.86
2022-08-17T05:30:09.582Z,23.98
2022-08-17T05:31:14.891Z,24.07
2022-08-17T05:32:38.034Z,24.12
2022-08-17T05:33:46.294Z,24.29
2022-08-17T05:34:50.452Z,24.38
2022-08-17T05:35:57.761Z,24.47
2022-08-17T05:37:01.807Z,24.58
2022-08-17T05:38:08.220Z,24.66
2022-08-17T05:39:16.332Z,24.75
2022-08-17T05:40:23.475Z,24.84
2022-08-17T05:41:27.751Z,24.94
2022-08-17T05:42:31.662Z,24.96
2022-08-17T05:43:40.131Z,25.16
2022-08-17T05:44:44.080Z,25.22
2022-08-17T05:46:03.018Z,25.38
2022-08-17T05:47:07.335Z,25.44
2022-08-17T05:48:14.494Z,25.61
2022-08-17T05:49:27.859Z,25.72
2022-08-17T05:50:57.333Z,25.85
2022-08-17T05:52:27.342Z,26.00
2022-08-17T05:54:33.284Z,26.22
2022-08-17T05:56:56.571Z,26.47
2022-08-17T05:58:17.404Z,26.61
2022-08-17T05:59:36.402Z,26.72
2022-08-17T06:01:10.455Z,26.87
2022-08-17T06:02:23.516Z,26.99
2022-08-17T06:04:03.225Z,27.11
2022-08-17T06:05:29.700Z,27.20
2022-08-17T06:07:09.821Z,27.25
2022-08-17T06:08:54.157Z,27.45
2022-08-17T06:10:43.685Z,27.57
2022-08-17T06:12:29.008Z,27.73
2022-08-17T06:14:13.637Z,27.98
2022-08-17T06:15:38.884Z,28.11
2022-08-17T06:16:49.657Z,28.33
2022-08-17T06:18:00.115Z,28.52
2022-08-17T06:19:16.328Z,28.72
2022-08-17T06:20:20.599Z,28.93
2022-08-17T06:21:30.540Z,29.15
2022-08-17T06:22:49.761Z,29.44
2022-08-17T06:24:31.671Z,29.82
2022-08-17T06:25:57.849Z,30.25
2022-08-17T06:27:37.536Z,30.70
2022-08-17T06:29:08.233Z,31.27
2022-08-17T06:30:28.646Z,31.74
2022-08-17T06:31:52.577Z,32.15
2022-08-17T06:33:14.872Z,32.53
2022-08-17T06:34:21.970Z,32.89
2022-08-17T06:35:50.856Z,33.15
2022-08-17T06:36:58.381Z,33.45
2022-08-17T06:43:02.173Z,34.69
2022-08-17T06:44:50.019Z,35.20
2022-08-17T06:45:49.544Z,35.79
2022-08-17T06:47:06.253Z,36.14
2022-08-17T06:48:24.958Z,36.47
2022-08-17T06:50:16.970Z,36.96
2022-08-17T06:51:38.079Z,37.42
2022-08-17T06:53:00.952Z,37.64
2022-08-17T06:54:27.867Z,37.89
2022-08-17T06:55:48.285Z,38.16
2022-08-17T06:57:02.819Z,38.34
2022-08-17T06:58:16.351Z,38.52
2022-08-17T06:59:55.013Z,38.61
2022-08-17T07:00:59.196Z,38.85
2022-08-17T07:02:09.956Z,39.14
2022-08-17T07:03:57.510Z,39.39
2022-08-17T07:05:02.322Z,39.63
2022-08-17T07:06:16.989Z,39.57
2022-08-17T07:07:41.363Z,39.72
2022-08-17T07:09:07.411Z,39.77
2022-08-17T07:10:14.671Z,39.91
2022-08-17T07:11:32.677Z,40.01
2022-08-17T07:12:43.535Z,39.86
2022-08-17T07:14:29.940Z,39.87
2022-08-17T07:15:42.971Z,39.76
2022-08-17T07:16:53.811Z,39.87
2022-08-17T07:18:00.788Z,40.01
2022-08-17T07:19:07.475Z,40.40
2022-08-17T07:20:22.588Z,40.87
2022-08-17T07:21:51.891Z,41.22
2022-08-17T07:23:16.075Z,41.35
2022-08-17T07:24:51.125Z,41.26
2022-08-17T07:26:07.011Z,41.00
2022-08-17T07:27:22.488Z,40.56
2022-08-17T07:28:30.129Z,40.42
2022-08-17T07:29:47.245Z,40.45
2022-08-17T07:30:54.858Z,40.89
2022-08-17T07:31:59.475Z,41.37
2022-08-17T07:33:14.403Z,41.93
2022-08-17T07:34:18.720Z,42.38
2022-08-17T07:35:41.471Z,42.99
2022-08-17T07:37:01.611Z,43.51
2022-08-17T07:38:31.088Z,43.96
2022-08-17T07:39:35.150Z,44.24
2022-08-17T07:41:03.776Z,44.55
2022-08-17T07:42:11.124Z,44.66
2022-08-17T07:43:23.759Z,44.87
2022-08-17T07:44:27.982Z,45.02
2022-08-17T07:45:54.226Z,45.19
2022-08-17T07:47:17.459Z,45.22
2022-08-17T07:48:27.413Z,45.11
2022-08-17T07:49:41.143Z,45.15
2022-08-17T07:50:49.291Z,45.24
2022-08-17T07:52:00.061Z,45.52
2022-08-17T07:53:26.203Z,45.55
2022-08-17T07:54:38.915Z,45.72
2022-08-17T07:55:43.284Z,45.89
2022-08-17T07:56:53.898Z,45.96
2022-08-17T07:58:00.592Z,46.19
2022-08-17T07:59:33.691Z,46.53
2022-08-17T08:00:37.940Z,46.69
2022-08-17T08:01:48.946Z,46.87
2022-08-17T08:03:28.582Z,47.20
2022-08-17T08:05:02.162Z,47.40
2022-08-17T08:06:26.505Z,47.63
2022-08-17T08:07:38.903Z,47.78
2022-08-17T08:08:50.705Z,47.79
2022-08-17T08:10:25.423Z,47.78
2022-08-17T08:11:35.658Z,47.78
2022-08-17T08:12:39.584Z,47.76
2022-08-17T08:13:45.980Z,47.90
2022-08-17T08:14:58.635Z,48.11
2022-08-17T08:16:29.837Z,48.32
2022-08-17T08:17:47.128Z,48.46
2022-08-17T08:18:57.823Z,48.46
2022-08-17T08:20:34.958Z,48.50
2022-08-17T08:21:51.596Z,48.59
2022-08-17T08:23:10.806Z,48.61
2022-08-17T08:24:55.888Z,48.68
2022-08-17T08:26:18.387Z,48.83
2022-08-17T08:27:50.831Z,48.94
2022-08-17T08:29:33.763Z,49.07
2022-08-17T08:30:48.902Z,49.24
2022-08-17T08:32:14.304Z,49.03
2022-08-17T08:33:42.619Z,49.06
2022-08-17T08:35:04.112Z,48.78
2022-08-17T08:36:59.284Z,48.93
2022-08-17T08:38:29.616Z,48.80
2022-08-17T08:40:30.434Z,48.73
2022-08-17T08:42:18.384Z,48.47
2022-08-17T08:43:55.058Z,47.86
2022-08-17T08:45:25.160Z,47.11
2022-08-17T08:47:05.170Z,46.37
2022-08-17T08:48:56.280Z,45.99
2022-08-17T08:50:30.244Z,45.60
2022-08-17T08:51:57.593Z,45.48
2022-08-17T08:53:21.632Z,45.41
2022-08-17T08:54:52.435Z,45.34
2022-08-17T08:56:37.480Z,45.45
2022-08-17T08:58:01.054Z,45.55
2022-08-17T08:59:23.462Z,45.55
2022-08-17T09:00:29.548Z,45.92
2022-08-17T09:02:16.339Z,46.50
2022-08-17T09:04:19.945Z,47.15
2022-08-17T09:05:36.854Z,47.80
2022-08-17T09:07:41.564Z,47.98
2022-08-17T09:09:07.618Z,48.20
2022-08-17T09:10:17.215Z,48.18
2022-08-17T09:12:01.453Z,48.25
2022-08-17T09:13:39.466Z,48.34
2022-08-17T09:15:09.562Z,48.15
2022-08-17T09:16:30.084Z,47.79
2022-08-17T09:17:40.154Z,47.77
2022-08-17T09:19:02.178Z,47.28
2022-08-17T09:20:27.147Z,46.97
2022-08-17T09:21:57.645Z,46.32
2022-08-17T09:23:42.396Z,45.17
2022-08-17T09:25:07.533Z,44.28
2022-08-17T09:26:35.340Z,43.27
2022-08-17T09:27:54.064Z,42.39
2022-08-17T09:29:07.217Z,41.59
2022-08-17T09:30:16.469Z,40.96
2022-08-17T09:31:49.133Z,40.20
2022-08-17T09:33:08.622Z,39.57
2022-08-17T09:34:28.149Z,39.03
2022-08-17T09:35:48.378Z,38.42
2022-08-17T09:37:20.621Z,37.95
2022-08-17T09:38:54.792Z,37.51
2022-08-17T09:40:30.110Z,37.09
2022-08-17T09:41:59.497Z,36.66
2022-08-17T09:43:54.208Z,36.39
2022-08-17T09:45:43.178Z,36.03
2022-08-17T09:47:26.696Z,35.75
2022-08-17T09:48:55.593Z,35.35
2022-08-17T09:51:05.262Z,35.30
2022-08-17T09:52:08.979Z,35.07
2022-08-17T09:53:13.878Z,34.90
2022-08-17T09:54:40.858Z,34.69
2022-08-17T09:56:34.284Z,34.49
2022-08-17T09:58:13.040Z,34.45
2022-08-17T10:00:25.869Z,34.48
2022-08-17T10:02:15.497Z,34.58
2022-08-17T10:04:19.985Z,34.77
2022-08-17T10:05:56.971Z,34.90
2022-08-17T10:07:46.861Z,34.94
2022-08-17T10:09:19.251Z,34.99
2022-08-17T10:11:00.384Z,34.97
2022-08-17T10:12:35.786Z,34.86
2022-08-17T10:14:37.015Z,34.70
2022-08-17T10:15:50.043Z,34.51
2022-08-17T10:17:30.013Z,34.43
2022-08-17T10:18:57.095Z,34.39
2022-08-17T10:20:31.140Z,34.25
2022-08-17T10:22:01.214Z,34.09
2022-08-17T10:23:36.884Z,33.95
2022-08-17T10:25:21.360Z,33.78
2022-08-17T10:26:55.409Z,33.60
2022-08-17T10:28:09.025Z,33.39
2022-08-17T10:29:47.255Z,33.27
2022-08-17T10:31:34.126Z,33.18
2022-08-17T10:32:48.539Z,33.06
2022-08-17T10:34:29.158Z,32.99
2022-08-17T10:35:51.597Z,32.94
2022-08-17T10:37:20.395Z,32.90
2022-08-17T10:38:47.062Z,32.85
2022-08-17T10:40:24.730Z,32.84
2022-08-17T10:41:45.623Z,32.79
2022-08-17T10:43:01.020Z,32.81
2022-08-17T10:44:51.801Z,32.83
2022-08-17T10:46:54.544Z,32.85
2022-08-17T10:48:07.695Z,32.82
2022-08-17T10:49:17.518Z,32.68
2022-08-17T10:51:00.160Z,32.60
2022-08-17T10:52:26.244Z,32.57
2022-08-17T10:53:32.821Z,32.53
2022-08-17T10:54:41.939Z,32.42
2022-08-17T10:56:14.436Z,32.44
2022-08-17T10:57:47.523Z,32.31
2022-08-17T10:59:01.264Z,32.37
2022-08-17T11:00:16.075Z,32.33
2022-08-17T11:01:38.447Z,32.36
2022-08-17T11:02:54.562Z,32.28
2022-08-17T11:04:04.828Z,32.28
2022-08-17T11:05:32.770Z,32.20
2022-08-17T11:06:49.580Z,32.21
2022-08-17T11:08:26.983Z,32.14
2022-08-17T11:10:24.003Z,32.07
2022-08-17T11:11:54.446Z,32.07
2022-08-17T11:13:30.503Z,32.05
2022-08-17T11:14:49.435Z,32.00
2022-08-17T11:16:51.497Z,32.02
2022-08-17T11:18:45.762Z,32.00
2022-08-17T11:20:09.744Z,32.02
2022-08-17T11:21:17.633Z,32.02
2022-08-17T11:22:39.683Z,32.05
2022-08-17T11:23:57.712Z,32.05
2022-08-17T11:25:21.584Z,31.98
2022-08-17T11:26:39.173Z,32.05
2022-08-17T11:27:47.385Z,31.96
2022-08-17T11:28:59.013Z,32.02
2022-08-17T11:30:13.318Z,32.03
2022-08-17T11:31:44.633Z,32.01
2022-08-17T11:32:53.057Z,31.97
2022-08-17T11:34:06.929Z,31.96
2022-08-17T11:35:31.311Z,31.96
2022-08-17T11:37:04.301Z,31.97
2022-08-17T11:38:20.446Z,31.94
2022-08-17T11:39:39.542Z,31.90
2022-08-17T11:41:31.050Z,31.89
2022-08-17T11:43:10.680Z,31.88
2022-08-17T11:44:56.262Z,31.92
2022-08-17T11:46:17.634Z,31.88
2022-08-17T11:48:15.873Z,31.90
2022-08-17T11:50:22.518Z,31.97
2022-08-17T11:52:14.852Z,32.10
2022-08-17T11:53:40.391Z,32.09
2022-08-17T11:54:49.216Z,32.10
2022-08-17T11:55:52.986Z,32.09
2022-08-17T11:57:00.385Z,32.11
2022-08-17T11:58:27.382Z,32.14
2022-08-17T11:59:36.134Z,32.13
2022-08-17T12:00:46.474Z,32.11
2022-08-17T12:01:57.360Z,32.08
2022-08-17T12:03:42.480Z,32.04
2022-08-17T12:05:12.976Z,31.94
2022-08-17T12:06:49.307Z,31.97
2022-08-17T12:08:18.638Z,31.96
2022-08-17T12:09:28.868Z,31.92
2022-08-17T12:10:40.174Z,31.96
2022-08-17T12:12:20.565Z,31.98
2022-08-17T12:13:30.515Z,32.01
2022-08-17T12:15:11.084Z,31.94
2022-08-17T12:16:21.156Z,32.05
2022-08-17T12:17:40.389Z,32.09
2022-08-17T12:19:02.618Z,32.08
2022-08-17T12:20:14.747Z,32.14
2022-08-17T12:21:40.968Z,32.16
2022-08-17T12:23:21.018Z,32.23
2022-08-17T12:24:59.878Z,32.28
2022-08-17T12:26:21.612Z,32.36
2022-08-17T12:27:50.748Z,32.34
2022-08-17T12:29:18.338Z,32.32
2022-08-17T12:30:39.233Z,32.40
2022-08-17T12:31:48.095Z,32.30
2022-08-17T12:32:53.709Z,32.33
2022-08-17T12:34:00.508Z,32.40
2022-08-17T12:35:39.145Z,32.43
2022-08-17T12:36:43.634Z,32.44
2022-08-17T12:37:50.667Z,32.40
2022-08-17T12:39:13.681Z,32.52
2022-08-17T12:40:24.550Z,32.48
2022-08-17T12:41:42.018Z,32.41
2022-08-17T12:43:08.073Z,32.49
2022-08-17T12:44:12.399Z,32.49
2022-08-17T12:45:36.999Z,32.55
2022-08-17T12:47:04.890Z,32.57
2022-08-17T12:48:22.191Z,32.59
2022-08-17T12:49:36.444Z,32.63
2022-08-17T12:50:46.297Z,32.62
2022-08-17T12:52:00.554Z,32.62
2022-08-17T12:53:25.226Z,32.62
2022-08-17T12:54:48.660Z,32.59
2022-08-17T12:55:55.262Z,32.58
2022-08-17T12:57:12.217Z,32.65
2022-08-17T12:58:25.419Z,32.56
2022-08-17T12:59:33.315Z,32.70
2022-08-17T13:00:47.607Z,32.66
2022-08-17T13:01:52.125Z,32.68
2022-08-17T13:03:09.747Z,32.66
2022-08-17T13:04:17.960Z,32.65
2022-08-17T13:05:40.428Z,32.51
2022-08-17T13:06:59.837Z,32.73
2022-08-17T13:08:31.355Z,32.76
2022-08-17T13:09:40.555Z,32.84
2022-08-17T13:10:58.615Z,32.88
2022-08-17T13:12:02.551Z,32.94
2022-08-17T13:13:32.535Z,33.02
2022-08-17T13:14:36.628Z,33.03
2022-08-17T13:15:55.997Z,33.06
2022-08-17T13:17:09.682Z,33.09
2022-08-17T13:18:51.125Z,33.15
2022-08-17T13:19:55.825Z,33.18
2022-08-17T13:21:01.187Z,33.15
2022-08-17T13:22:12.957Z,33.13
2022-08-17T13:23:21.557Z,33.11
2022-08-17T13:24:38.032Z,33.10
2022-08-17T13:25:43.096Z,33.14
2022-08-17T13:27:01.533Z,33.11
2022-08-17T13:28:35.505Z,33.10
2022-08-17T13:29:51.516Z,33.11
2022-08-17T13:31:30.433Z,33.18
2022-08-17T13:32:44.107Z,33.16
2022-08-17T13:33:48.849Z,33.18
2022-08-17T13:35:12.090Z,33.23
2022-08-17T13:36:32.173Z,33.19
2022-08-17T13:37:37.712Z,33.19
2022-08-17T13:38:49.834Z,33.14
2022-08-17T13:40:02.570Z,33.10
2022-08-17T13:41:07.771Z,33.07
2022-08-17T13:42:52.836Z,32.90
2022-08-17T13:43:57.576Z,32.88
2022-08-17T13:45:02.090Z,32.80
2022-08-17T13:46:31.850Z,32.75
2022-08-17T13:47:36.208Z,32.66
2022-08-17T13:48:40.548Z,32.64
2022-08-17T13:49:49.283Z,32.60
2022-08-17T13:50:58.712Z,32.60
2022-08-17T13:52:03.003Z,32.50
2022-08-17T13:53:36.920Z,32.54
2022-08-17T13:54:41.712Z,32.54
2022-08-17T13:55:54.356Z,32.57
2022-08-17T13:57:02.539Z,32.44
2022-08-17T13:58:07.521Z,32.54
2022-08-17T13:59:54.929Z,32.57
2022-08-17T14:00:51.954Z,32.58
2022-08-17T14:01:57.191Z,32.54
2022-08-17T14:03:04.924Z,32.59
2022-08-17T14:04:23.673Z,32.51
2022-08-17T14:05:31.048Z,32.57
2022-08-17T14:07:23.427Z,32.61
2022-08-17T14:08:30.977Z,32.64
2022-08-17T14:09:50.391Z,32.63
2022-08-17T14:10:58.843Z,32.61
2022-08-17T14:12:07.059Z,32.71
2022-08-17T14:13:13.514Z,32.73
2022-08-17T14:14:18.861Z,32.74
2022-08-17T14:15:54.779Z,32.74
2022-08-17T14:16:55.413Z,32.73
2022-08-17T14:17:59.544Z,32.61
2022-08-17T14:19:04.389Z,32.64
2022-08-17T14:20:13.703Z,32.62
2022-08-17T14:21:18.065Z,32.63
2022-08-17T14:22:29.728Z,32.56
2022-08-17T14:23:35.531Z,32.57
2022-08-17T14:24:45.041Z,32.56
2022-08-17T14:25:49.387Z,32.55
2022-08-17T14:26:54.298Z,32.53
2022-08-17T14:27:58.583Z,32.47
2022-08-17T14:29:02.861Z,32.42
2022-08-17T14:30:11.824Z,32.41
2022-08-17T14:31:16.545Z,32.37
2022-08-17T14:32:25.993Z,32.38
2022-08-17T14:33:30.072Z,32.26
2022-08-17T14:34:34.080Z,32.31
2022-08-17T14:35:38.122Z,32.25
2022-08-17T14:36:48.152Z,32.21
2022-08-17T14:37:53.540Z,32.21
2022-08-17T14:38:57.858Z,32.20
2022-08-17T14:40:08.472Z,32.21
2022-08-17T14:41:12.942Z,32.21
2022-08-17T14:42:18.672Z,32.14
2022-08-17T14:43:22.587Z,32.21
2022-08-17T14:44:27.716Z,32.18
2022-08-17T14:45:33.489Z,32.23
2022-08-17T14:46:37.762Z,32.22
2022-08-17T14:47:42.472Z,32.20
2022-08-17T14:48:47.274Z,32.22
2022-08-17T14:49:51.449Z,32.21
2022-08-17T14:50:56.922Z,32.25
2022-08-17T14:52:02.157Z,32.27
2022-08-17T14:53:09.416Z,32.20
2022-08-17T14:54:33.013Z,32.27
2022-08-17T14:55:40.719Z,32.33
2022-08-17T14:56:46.963Z,32.36
2022-08-17T14:57:59.113Z,32.39
2022-08-17T14:59:03.216Z,32.37
2022-08-17T15:00:11.336Z,32.43
2022-08-17T15:01:16.876Z,32.47
2022-08-17T15:02:22.501Z,32.46
2022-08-17T15:03:34.778Z,32.45
2022-08-17T15:04:44.883Z,32.42
2022-08-17T15:05:50.017Z,32.42
2022-08-17T15:06:54.286Z,32.41
2022-08-17T15:08:00.031Z,32.39
2022-08-17T15:09:04.562Z,32.38
2022-08-17T15:10:11.070Z,32.35
2022-08-17T15:11:16.133Z,32.27
2022-08-17T15:12:26.432Z,32.33
2022-08-17T15:13:37.161Z,32.33
2022-08-17T15:14:57.283Z,32.29
2022-08-17T15:16:01.686Z,32.27
2022-08-17T15:17:05.838Z,32.25
2022-08-17T15:18:09.638Z,32.24
2022-08-17T15:19:13.423Z,32.15
2022-08-17T15:20:28.213Z,32.15
2022-08-17T15:21:35.010Z,32.08
2022-08-17T15:22:44.032Z,32.10
2022-08-17T15:23:47.984Z,32.02
2022-08-17T15:24:51.878Z,32.03
2022-08-17T15:25:55.932Z,32.06
2022-08-17T15:26:59.729Z,32.01
2022-08-17T15:28:04.366Z,32.06
2022-08-17T15:29:10.617Z,32.06
2022-08-17T15:30:16.266Z,32.07
2022-08-17T15:31:20.387Z,32.07
2022-08-17T15:32:39.858Z,32.02
2022-08-17T15:33:44.719Z,32.03
2022-08-17T15:34:49.658Z,31.95
2022-08-17T15:35:54.354Z,32.01
2022-08-17T15:36:58.144Z,32.01
2022-08-17T15:38:11.214Z,31.95
2022-08-17T15:39:19.257Z,31.98
2022-08-17T15:40:23.728Z,31.92
2022-08-17T15:41:28.604Z,31.98
2022-08-17T15:42:33.151Z,32.00
2022-08-17T15:43:37.763Z,31.97
2022-08-17T15:44:41.638Z,31.96
2022-08-17T15:46:00.003Z,31.98
2022-08-17T15:47:04.661Z,31.93
2022-08-17T15:48:09.498Z,32.01
2022-08-17T15:49:14.047Z,32.00
2022-08-17T15:50:18.050Z,31.97
2022-08-17T15:51:33.047Z,31.97
2022-08-17T15:52:40.625Z,31.97
2022-08-17T15:53:49.586Z,31.97
2022-08-17T15:55:01.679Z,31.98
2022-08-17T15:56:06.686Z,32.02
2022-08-17T15:57:10.643Z,32.03
2022-08-17T15:58:15.004Z,32.00
2022-08-17T15:59:23.447Z,32.00
2022-08-17T16:00:30.195Z,31.95
2022-08-17T16:02:21.523Z,31.91
2022-08-17T16:03:44.959Z,31.91
2022-08-17T16:04:29.884Z,31.89
2022-08-17T16:05:35.902Z,31.86
2022-08-17T16:06:41.495Z,31.85
2022-08-17T16:07:45.279Z,31.83
2022-08-17T16:08:50.664Z,31.81
2022-08-17T16:09:59.704Z,31.71
2022-08-17T16:11:04.545Z,31.74
2022-08-17T16:12:21.462Z,31.62
2022-08-17T16:13:28.021Z,31.55
2022-08-17T16:14:33.692Z,31.48
2022-08-17T16:15:39.087Z,31.29
2022-08-17T16:16:43.084Z,31.24
2022-08-17T16:17:46.930Z,31.19
2022-08-17T16:18:54.496Z,31.12
2022-08-17T16:20:04.952Z,30.96